MMTP/TAP METAR and TAF weather

Enter ICAO airport designator
Station Type Date Time Source
MMTP METAR 2020/01/29 02:40 UTC NOAA

MMTP 290240Z 00000KT 10SM SCT200 23/22 A2990 RMK SLP148 52020 960 8/001


Station Type Date Time Source
MMTP Decoded METAR 2020/01/29 02:40 UTC NOAA

Tapachula , Mexico (MMTP) 14-47N 092-23W
Jan 28, 2020 - 09:40 PM EST / 2020.01.29 0240 UTC
Wind: Calm:0
Visibility: 10 mile(s):0
Sky conditions: partly cloudy
Temperature: 73 F (23 C)
Dew Point: 71 F (22 C)
Relative Humidity: 94%
Pressure (altimeter): 29.9 in. Hg (1012 hPa)
Pressure tendency: 0.06 inches (2.0 hPa) higher than three hours ago
ob: MMTP 290240Z 00000KT 10SM SCT200 23/22 A2990 RMK SLP148 52020 960 8/001
cycle: 2

Station Type Date Time Source
MMTP TAF 2020/01/28 18:09 UTC NOAA

TAF MMTP 281702Z 2818/2924 24015KT P6SM SCT030
BECMG 2901/2902 00000KT
FM291500 32010KT P6SM SKC

Example: see airport list